Main page
METAR-TAF:

METAR-TAF

Airports :

Tyndall Air Force Base

Panama City, Florida, United States

latitude: 30-04N, longitude: 085-35W, elevation: 16 ft

Current weather observation

The report was made 46 minutes ago, at 02:56 UTC
Calm wind
Temperature 72°F
Humidity 73%
Pressure 30.05 in. Hg
Visibility: 10 miles
Clear sky

METAR: KPAM 260256Z AUTO 00000KT 10SM CLR 22/17 A3005 RMK AO2 SLP179 T02150171 52017 $

Time: 22:42 (03:42 UTC)

Forecast

The report was made 8 hours and 42 minutes ago, at 19:00 UTC
Forecast valid from 24 at 19 UTC to 26 at 01 UTC
Wind 10 mph from the North
Visibility 6.2 miles or more
Clear sky
Becoming
from 25 at 04 UTC to 25 at 05 UTC
Wind 7 mph from the Northeast
Visibility: 8894 ft
Clear sky

TAF: KPAM 241900Z 2419/2601 36009KT 9999 SKC QNH3001INS BECMG 2504/2505 04006KT 9999 SKC QNH3002INS TX28/2519Z TN16/2511Z LAST NO AMDS AFT 2419 NEXT 2711

Weather observations and forecasts of more than 4000 airports (METAR and TAF reports).

The available stations are represented by yellow and red dots on the map.

Hover mouse over dot to see the name of the station.

Then click to see weather observations and forecasts.

To change the map : click on the green buttons with a black cross to zoom in, on the green button with a dash to zoom out, or on the green arrows for adjacent maps.


METAR-TAF: